createdAt,value
2023-01-07T00:01:40.817Z,11.08
2023-01-07T00:04:12.266Z,11.07
2023-01-07T00:06:41.797Z,11.04
2023-01-07T00:09:16.834Z,11.00
2023-01-07T00:11:45.048Z,10.96
2023-01-07T00:14:14.306Z,10.93
2023-01-07T00:16:41.822Z,10.89
2023-01-07T00:19:14.363Z,10.87
2023-01-07T00:21:42.437Z,10.84
2023-01-07T00:24:18.584Z,10.85
2023-01-07T00:26:45.811Z,10.85
2023-01-07T00:29:12.941Z,10.85
2023-01-07T00:31:41.088Z,10.85
2023-01-07T00:34:09.562Z,10.87
2023-01-07T00:36:46.364Z,10.89
2023-01-07T00:39:17.183Z,10.90
2023-01-07T00:42:05.489Z,10.91
2023-01-07T00:44:33.550Z,10.90
2023-01-07T00:47:01.422Z,10.90
2023-01-07T00:49:28.506Z,10.91
2023-01-07T00:51:55.621Z,10.89
2023-01-07T00:54:22.825Z,10.84
2023-01-07T00:56:49.832Z,10.81
2023-01-07T00:59:16.950Z,10.78
2023-01-07T01:01:44.082Z,10.76
2023-01-07T01:04:11.304Z,10.74
2023-01-07T01:06:43.756Z,10.72
2023-01-07T01:09:10.900Z,10.70
2023-01-07T01:11:37.877Z,10.68
2023-01-07T01:14:04.874Z,10.67
2023-01-07T01:16:31.944Z,10.67
2023-01-07T01:18:58.936Z,10.65
2023-01-07T01:21:25.940Z,10.66
2023-01-07T01:23:53.031Z,10.68
2023-01-07T01:26:20.099Z,10.68
2023-01-07T01:28:47.109Z,10.69
2023-01-07T01:31:14.382Z,10.70
2023-01-07T01:33:41.743Z,10.71
2023-01-07T01:36:12.967Z,10.72
2023-01-07T01:38:41.017Z,10.72
2023-01-07T01:41:08.522Z,10.72
2023-01-07T01:43:39.585Z,10.74
2023-01-07T01:46:21.008Z,10.74
2023-01-07T01:49:17.162Z,10.75
2023-01-07T01:51:55.408Z,10.74
2023-01-07T01:54:23.703Z,10.77
2023-01-07T01:56:54.381Z,10.80
2023-01-07T01:59:26.947Z,10.80
2023-01-07T02:01:54.346Z,10.83
2023-01-07T02:04:24.598Z,10.85
2023-01-07T02:07:01.237Z,10.86
2023-01-07T02:09:28.913Z,10.88
2023-01-07T02:12:16.844Z,10.89
2023-01-07T02:15:18.460Z,10.91
2023-01-07T02:18:18.421Z,10.92
2023-01-07T02:21:21.852Z,10.93
2023-01-07T02:24:29.123Z,10.96
2023-01-07T02:27:16.360Z,10.96
2023-01-07T02:30:43.256Z,10.99
2023-01-07T02:33:58.217Z,10.96
2023-01-07T02:36:47.459Z,10.93
2023-01-07T02:39:35.401Z,10.90
2023-01-07T02:42:25.898Z,10.88
2023-01-07T02:45:14.981Z,10.87
2023-01-07T02:47:52.423Z,10.88
2023-01-07T02:50:19.669Z,10.89
2023-01-07T02:52:46.860Z,10.90
2023-01-07T02:55:19.430Z,10.94
2023-01-07T02:58:00.750Z,10.99
2023-01-07T03:01:06.143Z,11.04
2023-01-07T03:04:09.835Z,11.06
2023-01-07T03:07:06.987Z,11.09
2023-01-07T03:10:05.608Z,11.11
2023-01-07T03:13:02.824Z,11.15
2023-01-07T03:16:11.120Z,11.13
2023-01-07T03:18:51.164Z,11.12
2023-01-07T03:21:19.995Z,11.12
2023-01-07T03:23:55.299Z,11.10
2023-01-07T03:26:30.037Z,11.10
2023-01-07T03:29:02.814Z,11.08
2023-01-07T03:31:31.012Z,11.07
2023-01-07T03:34:09.863Z,11.06
2023-01-07T03:36:49.256Z,11.08
2023-01-07T03:39:17.733Z,11.07
2023-01-07T03:42:03.333Z,11.06
2023-01-07T03:44:30.325Z,11.07
2023-01-07T03:46:57.410Z,11.08
2023-01-07T03:49:24.446Z,11.08
2023-01-07T03:51:54.340Z,11.09
2023-01-07T03:54:23.856Z,11.10
2023-01-07T03:56:50.863Z,11.11
2023-01-07T03:59:17.889Z,11.12
2023-01-07T04:01:45.004Z,11.11
2023-01-07T04:04:12.211Z,11.11
2023-01-07T04:06:39.242Z,11.10
2023-01-07T04:09:06.213Z,11.10
2023-01-07T04:11:33.220Z,11.07
2023-01-07T04:14:00.888Z,11.05
2023-01-07T04:16:28.052Z,11.05
2023-01-07T04:18:55.420Z,11.01
2023-01-07T04:21:22.553Z,11.00
2023-01-07T04:23:49.745Z,11.02
2023-01-07T04:26:16.813Z,11.01
2023-01-07T04:28:43.812Z,11.03
2023-01-07T04:31:10.981Z,11.04
2023-01-07T04:33:38.403Z,11.07
2023-01-07T04:36:05.720Z,11.08
2023-01-07T04:38:33.046Z,11.11
2023-01-07T04:41:00.132Z,11.12
2023-01-07T04:43:27.152Z,11.12
2023-01-07T04:45:54.216Z,11.12
2023-01-07T04:48:21.335Z,11.11
2023-01-07T04:50:48.585Z,11.11
2023-01-07T04:53:16.514Z,11.11
2023-01-07T04:55:44.966Z,11.09
2023-01-07T04:58:13.442Z,11.12
2023-01-07T05:00:40.545Z,11.12
2023-01-07T05:03:07.579Z,11.15
2023-01-07T05:05:34.771Z,11.17
2023-01-07T05:08:05.133Z,11.21
2023-01-07T05:10:33.035Z,11.20
2023-01-07T05:13:00.054Z,11.22
2023-01-07T05:15:27.147Z,11.23
2023-01-07T05:17:54.155Z,11.19
2023-01-07T05:20:21.140Z,11.19
2023-01-07T05:22:50.207Z,11.19
2023-01-07T05:25:17.424Z,11.17
2023-01-07T05:27:44.388Z,11.17
2023-01-07T05:30:11.858Z,11.18
2023-01-07T05:32:38.901Z,11.18
2023-01-07T05:35:06.329Z,11.17
2023-01-07T05:37:33.900Z,11.19
2023-01-07T05:40:00.939Z,11.20
2023-01-07T05:42:28.043Z,11.21
2023-01-07T05:44:55.148Z,11.22
2023-01-07T05:47:22.255Z,11.21
2023-01-07T05:49:49.512Z,11.21
2023-01-07T05:52:17.640Z,11.20
2023-01-07T05:54:44.667Z,11.21
2023-01-07T05:57:11.705Z,11.21
2023-01-07T05:59:38.874Z,11.21
2023-01-07T06:02:05.955Z,11.21
2023-01-07T06:04:34.209Z,11.20
2023-01-07T06:07:01.834Z,11.20
2023-01-07T06:09:30.000Z,11.18
2023-01-07T06:11:57.285Z,11.18
2023-01-07T06:14:24.288Z,11.19
2023-01-07T06:16:51.407Z,11.18
2023-01-07T06:19:18.527Z,11.18
2023-01-07T06:21:45.518Z,11.17
2023-01-07T06:24:12.566Z,11.16
2023-01-07T06:26:39.571Z,11.15
2023-01-07T06:29:07.160Z,11.15
2023-01-07T06:31:34.284Z,11.14
2023-01-07T06:34:01.270Z,11.15
2023-01-07T06:36:28.378Z,11.15
2023-01-07T06:38:55.412Z,11.15
2023-01-07T06:41:22.579Z,11.15
2023-01-07T06:43:49.595Z,11.14
2023-01-07T06:46:16.972Z,11.12
2023-01-07T06:48:44.143Z,11.11
2023-01-07T06:51:11.360Z,11.11
2023-01-07T06:53:38.364Z,11.11
2023-01-07T06:56:05.789Z,11.12
2023-01-07T06:58:32.823Z,11.11
2023-01-07T07:03:50.951Z,11.07
2023-01-07T07:06:18.012Z,11.05
2023-01-07T07:08:44.990Z,11.05
2023-01-07T07:11:15.059Z,11.03
2023-01-07T07:13:42.103Z,11.03
2023-01-07T07:16:09.188Z,11.02
2023-01-07T07:18:36.299Z,11.04
2023-01-07T07:21:03.440Z,11.02
2023-01-07T07:23:30.513Z,11.03
2023-01-07T07:25:57.551Z,11.03
2023-01-07T07:28:24.593Z,11.03
2023-01-07T07:30:51.681Z,11.04
2023-01-07T07:33:21.874Z,11.03
2023-01-07T07:35:49.496Z,11.03
2023-01-07T07:38:18.097Z,11.02
2023-01-07T07:40:48.932Z,11.03
2023-01-07T07:43:16.644Z,11.03
2023-01-07T07:45:44.690Z,11.03
2023-01-07T07:48:16.540Z,11.04
2023-01-07T07:50:43.651Z,11.05
2023-01-07T07:53:11.560Z,11.07
2023-01-07T07:55:39.720Z,11.07
2023-01-07T07:58:07.454Z,11.09
2023-01-07T08:00:34.531Z,11.11
2023-01-07T08:03:02.102Z,11.15
2023-01-07T08:05:29.942Z,11.17
2023-01-07T08:07:58.218Z,11.20
2023-01-07T08:10:27.207Z,11.22
2023-01-07T08:12:54.258Z,11.25
2023-01-07T08:15:21.367Z,11.29
2023-01-07T08:17:48.471Z,11.33
2023-01-07T08:20:15.503Z,11.36
2023-01-07T08:22:42.532Z,11.38
2023-01-07T08:25:10.023Z,11.41
2023-01-07T08:27:37.035Z,11.42
2023-01-07T08:30:04.619Z,11.46
2023-01-07T08:32:31.618Z,11.48
2023-01-07T08:34:58.752Z,11.50
2023-01-07T08:37:26.066Z,11.53
2023-01-07T08:39:53.063Z,11.56
2023-01-07T08:42:20.152Z,11.56
2023-01-07T08:44:47.187Z,11.59
2023-01-07T08:47:14.683Z,11.60
2023-01-07T08:49:41.759Z,11.64
2023-01-07T08:52:08.761Z,11.65
2023-01-07T08:54:35.798Z,11.70
2023-01-07T08:57:04.107Z,11.72
2023-01-07T08:59:31.585Z,11.77
2023-01-07T09:01:58.831Z,11.80
2023-01-07T09:04:25.996Z,11.83
2023-01-07T09:06:53.056Z,11.87
2023-01-07T09:09:20.225Z,11.90
2023-01-07T09:11:47.322Z,11.93
2023-01-07T09:14:14.882Z,11.94
2023-01-07T09:16:42.089Z,11.98
2023-01-07T09:19:09.171Z,12.00
2023-01-07T09:21:36.312Z,12.05
2023-01-07T09:24:03.392Z,12.10
2023-01-07T09:26:30.363Z,12.13
2023-01-07T09:28:57.364Z,12.16
2023-01-07T09:31:24.466Z,12.18
2023-01-07T09:33:51.665Z,12.24
2023-01-07T09:36:18.720Z,12.28
2023-01-07T09:38:45.743Z,12.34
2023-01-07T09:42:04.681Z,12.45
2023-01-07T09:44:44.674Z,12.61
2023-01-07T09:47:15.504Z,12.74
2023-01-07T09:49:44.823Z,12.80
2023-01-07T09:52:25.971Z,12.85
2023-01-07T09:55:03.877Z,12.92
2023-01-07T09:57:30.927Z,12.96
2023-01-07T09:59:58.044Z,12.96
2023-01-07T10:02:46.100Z,12.95
2023-01-07T10:05:31.410Z,12.93
2023-01-07T10:08:31.985Z,12.91
2023-01-07T10:11:54.810Z,12.90
2023-01-07T10:14:50.737Z,12.92
2023-01-07T10:17:45.960Z,12.96
2023-01-07T10:20:21.632Z,12.96
2023-01-07T10:22:57.914Z,12.94
2023-01-07T10:25:35.992Z,12.95
2023-01-07T10:28:18.256Z,12.96
2023-01-07T10:30:48.332Z,12.96
2023-01-07T10:33:31.516Z,12.99
2023-01-07T10:36:04.776Z,13.03
2023-01-07T10:38:37.453Z,13.02
2023-01-07T10:41:16.830Z,13.08
2023-01-07T10:44:25.086Z,13.09
2023-01-07T10:47:27.464Z,13.10
2023-01-07T10:49:54.460Z,13.10
2023-01-07T10:52:45.333Z,13.14
2023-01-07T10:55:22.386Z,13.14
2023-01-07T10:57:49.636Z,13.14
2023-01-07T11:00:18.584Z,13.16
2023-01-07T11:02:54.670Z,13.16
2023-01-07T11:05:23.003Z,13.19
2023-01-07T11:08:26.925Z,13.18
2023-01-07T11:10:54.029Z,13.18
2023-01-07T11:13:30.543Z,13.24
2023-01-07T11:16:12.661Z,13.40
2023-01-07T11:19:04.273Z,13.44
2023-01-07T11:21:47.534Z,13.47
2023-01-07T11:24:32.598Z,13.47
2023-01-07T11:27:12.664Z,13.49
2023-01-07T11:30:04.196Z,13.53
2023-01-07T11:32:40.316Z,13.51
2023-01-07T11:35:22.675Z,13.54
2023-01-07T11:37:50.698Z,13.56
2023-01-07T11:40:23.743Z,13.55
2023-01-07T11:42:58.569Z,13.52
2023-01-07T11:46:20.276Z,13.53
2023-01-07T11:48:57.953Z,13.50
2023-01-07T11:51:25.361Z,13.46
2023-01-07T11:54:00.449Z,13.46
2023-01-07T11:56:34.708Z,13.43
2023-01-07T11:59:14.352Z,13.43
2023-01-07T12:01:49.911Z,13.42
2023-01-07T12:04:36.167Z,13.50
2023-01-07T12:07:14.455Z,13.52
2023-01-07T12:09:44.096Z,13.56
2023-01-07T12:12:39.453Z,13.71
2023-01-07T12:15:47.461Z,13.82
2023-01-07T12:18:41.817Z,13.81
2023-01-07T12:21:50.826Z,13.85
2023-01-07T12:25:17.969Z,13.93
2023-01-07T12:28:16.916Z,14.04
2023-01-07T12:31:27.577Z,14.09
2023-01-07T12:34:45.847Z,14.09
2023-01-07T12:37:36.589Z,14.13
2023-01-07T12:40:13.351Z,14.15
2023-01-07T12:42:54.010Z,14.09
2023-01-07T12:45:41.590Z,14.00
2023-01-07T12:48:35.706Z,13.88
2023-01-07T12:51:18.401Z,13.76
2023-01-07T12:54:27.656Z,13.67
2023-01-07T12:57:03.515Z,13.59
2023-01-07T12:59:48.112Z,13.53
2023-01-07T13:02:33.244Z,13.52
2023-01-07T13:05:16.393Z,13.49
2023-01-07T13:07:43.866Z,13.47
2023-01-07T13:10:18.979Z,13.45
2023-01-07T13:12:49.279Z,13.46
2023-01-07T13:15:36.081Z,13.52
2023-01-07T13:18:29.608Z,13.58
2023-01-07T13:21:11.751Z,13.65
2023-01-07T13:24:00.731Z,13.74
2023-01-07T13:26:52.020Z,13.74
2023-01-07T13:30:08.779Z,13.70
2023-01-07T13:33:29.351Z,13.68
2023-01-07T13:36:32.520Z,13.67
2023-01-07T13:39:58.740Z,13.62
2023-01-07T13:42:29.274Z,13.57
2023-01-07T13:45:05.864Z,13.51
2023-01-07T13:47:53.054Z,13.47
2023-01-07T13:50:43.285Z,13.43
2023-01-07T13:53:46.183Z,13.38
2023-01-07T13:56:19.557Z,13.34
2023-01-07T13:58:58.183Z,13.31
2023-01-07T14:01:33.899Z,13.27
2023-01-07T14:04:03.984Z,13.24
2023-01-07T14:06:52.626Z,13.26
2023-01-07T14:09:31.931Z,13.25
2023-01-07T14:12:19.619Z,13.24
2023-01-07T14:15:16.731Z,13.22
2023-01-07T14:17:57.709Z,13.19
2023-01-07T14:20:49.844Z,13.17
2023-01-07T14:23:33.407Z,13.14
2023-01-07T14:26:35.957Z,13.13
2023-01-07T14:29:08.553Z,13.10
2023-01-07T14:31:36.618Z,13.08
2023-01-07T14:34:27.024Z,13.08
2023-01-07T14:37:06.427Z,13.03
2023-01-07T14:39:40.866Z,12.98
2023-01-07T14:42:20.048Z,12.92
2023-01-07T14:44:50.845Z,12.88
2023-01-07T14:47:45.341Z,12.85
2023-01-07T14:51:11.688Z,12.79
2023-01-07T14:54:22.358Z,12.71
2023-01-07T14:57:45.412Z,12.67
2023-01-07T15:00:58.954Z,12.61
2023-01-07T15:03:58.392Z,12.55
2023-01-07T15:06:35.726Z,12.48
2023-01-07T15:09:29.587Z,12.42
2023-01-07T15:12:33.899Z,12.35
2023-01-07T15:15:37.813Z,12.26
2023-01-07T15:18:09.114Z,12.18
2023-01-07T15:21:04.328Z,12.15
2023-01-07T15:24:04.890Z,12.12
2023-01-07T15:26:54.894Z,12.07
2023-01-07T15:29:50.587Z,12.06
2023-01-07T15:32:39.720Z,12.06
2023-01-07T15:35:23.315Z,12.02
2023-01-07T15:37:51.596Z,11.99
2023-01-07T15:40:23.643Z,11.97
2023-01-07T15:42:56.802Z,11.94
2023-01-07T15:45:27.077Z,11.93
2023-01-07T15:48:12.875Z,11.88
2023-01-07T15:50:46.058Z,11.86
2023-01-07T15:53:12.980Z,11.87
2023-01-07T15:56:03.891Z,11.86
2023-01-07T15:58:48.546Z,11.84
2023-01-07T16:01:22.652Z,11.82
2023-01-07T16:03:55.798Z,11.82
2023-01-07T16:06:27.564Z,11.82
2023-01-07T16:08:54.900Z,11.81
2023-01-07T16:11:31.477Z,11.80
2023-01-07T16:14:03.912Z,11.79
2023-01-07T16:16:32.868Z,11.75
2023-01-07T16:19:02.892Z,11.73
2023-01-07T16:21:37.760Z,11.72
2023-01-07T16:24:05.988Z,11.70
2023-01-07T16:27:05.397Z,11.71
2023-01-07T16:29:48.360Z,11.70
2023-01-07T16:32:16.838Z,11.68
2023-01-07T16:35:17.426Z,11.69
2023-01-07T16:37:45.637Z,11.69
2023-01-07T16:40:27.475Z,11.67
2023-01-07T16:42:55.064Z,11.62
2023-01-07T16:45:32.724Z,11.57
2023-01-07T16:48:21.700Z,11.51
2023-01-07T16:50:50.121Z,11.47
2023-01-07T16:53:33.704Z,11.45
2023-01-07T16:56:17.674Z,11.45
2023-01-07T16:58:53.142Z,11.42
2023-01-07T17:01:34.041Z,11.40
2023-01-07T17:04:07.640Z,11.36
2023-01-07T17:06:42.500Z,11.32
2023-01-07T17:09:38.667Z,11.28
2023-01-07T17:12:06.360Z,11.24
2023-01-07T17:14:33.315Z,11.19
2023-01-07T17:17:25.790Z,11.12
2023-01-07T17:20:12.475Z,11.05
2023-01-07T17:22:40.308Z,10.96
2023-01-07T17:25:14.181Z,10.92
2023-01-07T17:27:58.256Z,10.87
2023-01-07T17:30:36.407Z,10.83
2023-01-07T17:33:04.157Z,10.77
2023-01-07T17:35:31.399Z,10.75
2023-01-07T17:37:58.416Z,10.71
2023-01-07T17:40:25.555Z,10.71
2023-01-07T17:43:24.910Z,10.71
2023-01-07T17:45:51.952Z,10.69
2023-01-07T17:48:18.997Z,10.68
2023-01-07T17:50:46.075Z,10.66
2023-01-07T17:53:28.477Z,10.64
2023-01-07T17:55:55.905Z,10.61
2023-01-07T17:58:29.621Z,10.59
2023-01-07T18:00:59.408Z,10.55
2023-01-07T18:03:27.285Z,10.52
2023-01-07T18:05:54.365Z,10.51
2023-01-07T18:08:21.379Z,10.50
2023-01-07T18:11:09.661Z,10.50
2023-01-07T18:13:36.832Z,10.48
2023-01-07T18:16:04.431Z,10.47
2023-01-07T18:18:31.582Z,10.49
2023-01-07T18:20:59.706Z,10.49
2023-01-07T18:23:26.680Z,10.52
2023-01-07T18:25:54.946Z,10.53
2023-01-07T18:28:22.042Z,10.55
2023-01-07T18:30:49.081Z,10.56
2023-01-07T18:33:16.272Z,10.58
2023-01-07T18:35:43.372Z,10.57
2023-01-07T18:38:14.781Z,10.56
2023-01-07T18:40:42.934Z,10.56
2023-01-07T18:43:16.656Z,10.59
2023-01-07T18:45:45.731Z,10.63
2023-01-07T18:48:15.622Z,10.66
2023-01-07T18:50:44.777Z,10.68
2023-01-07T18:53:12.551Z,10.71
2023-01-07T18:55:42.593Z,10.74
2023-01-07T18:58:13.991Z,10.76
2023-01-07T19:00:42.215Z,10.80
2023-01-07T19:03:11.077Z,10.83
2023-01-07T19:05:41.136Z,10.84
2023-01-07T19:08:08.181Z,10.87
2023-01-07T19:10:36.436Z,10.87
2023-01-07T19:13:03.555Z,10.89
2023-01-07T19:15:30.569Z,10.92
2023-01-07T19:17:57.529Z,10.93
2023-01-07T19:20:24.558Z,10.93
2023-01-07T19:22:51.552Z,10.96
2023-01-07T19:25:18.596Z,10.97
2023-01-07T19:27:45.643Z,10.99
2023-01-07T19:30:12.999Z,11.01
2023-01-07T19:32:40.055Z,11.02
2023-01-07T19:35:08.272Z,11.04
2023-01-07T19:37:38.107Z,11.07
2023-01-07T19:40:07.072Z,11.10
2023-01-07T19:42:34.509Z,11.12
2023-01-07T19:45:02.472Z,11.12
2023-01-07T19:47:29.712Z,11.15
2023-01-07T19:49:56.822Z,11.15
2023-01-07T19:52:23.959Z,11.18
2023-01-07T19:54:50.957Z,11.17
2023-01-07T19:57:18.021Z,11.16
2023-01-07T19:59:45.090Z,11.15
2023-01-07T20:02:14.486Z,11.14
2023-01-07T20:04:43.068Z,11.13
2023-01-07T20:07:10.228Z,11.14
2023-01-07T20:09:37.248Z,11.11
2023-01-07T20:12:04.630Z,11.11
2023-01-07T20:14:33.195Z,11.12
2023-01-07T20:17:00.230Z,11.11
2023-01-07T20:19:27.379Z,11.11
2023-01-07T20:21:54.443Z,11.09
2023-01-07T20:24:21.717Z,11.09
2023-01-07T20:26:48.884Z,11.09
2023-01-07T20:29:16.008Z,11.08
2023-01-07T20:31:44.355Z,11.10
2023-01-07T20:34:11.430Z,11.10
2023-01-07T20:36:38.525Z,11.10
2023-01-07T20:39:06.150Z,11.10
2023-01-07T20:41:35.149Z,11.08
2023-01-07T20:44:06.342Z,11.08
2023-01-07T20:46:34.849Z,11.08
2023-01-07T20:49:02.451Z,11.10
2023-01-07T20:51:29.495Z,11.12
2023-01-07T20:53:57.757Z,11.14
2023-01-07T20:56:26.289Z,11.15
2023-01-07T20:58:53.362Z,11.17
2023-01-07T21:01:21.929Z,11.17
2023-01-07T21:03:49.409Z,11.17
2023-01-07T21:06:19.729Z,11.19
2023-01-07T21:08:48.549Z,11.16
2023-01-07T21:11:21.848Z,11.18
2023-01-07T21:13:50.165Z,11.16
2023-01-07T21:16:17.847Z,11.18
2023-01-07T21:18:45.168Z,11.19
2023-01-07T21:21:20.409Z,11.21
2023-01-07T21:23:48.753Z,11.21
2023-01-07T21:26:16.540Z,11.20
2023-01-07T21:28:44.749Z,11.19
2023-01-07T21:31:16.023Z,11.21
2023-01-07T21:33:44.776Z,11.22
2023-01-07T21:36:17.965Z,11.23
2023-01-07T21:38:46.632Z,11.21
2023-01-07T21:41:16.180Z,11.20
2023-01-07T21:43:44.683Z,11.19
2023-01-07T21:46:13.154Z,11.18
2023-01-07T21:48:45.090Z,11.17
2023-01-07T21:51:20.783Z,11.19
2023-01-07T21:53:48.478Z,11.19
2023-01-07T21:56:17.980Z,11.18
2023-01-07T21:58:48.543Z,11.18
2023-01-07T22:01:17.460Z,11.19
2023-01-07T22:03:49.953Z,11.21
2023-01-07T22:06:32.756Z,11.23
2023-01-07T22:09:04.851Z,11.22
2023-01-07T22:11:35.710Z,11.22
2023-01-07T22:14:02.914Z,11.24
2023-01-07T22:16:32.055Z,11.23
2023-01-07T22:18:59.892Z,11.23
2023-01-07T22:21:27.131Z,11.24
2023-01-07T22:23:54.225Z,11.26
2023-01-07T22:26:21.813Z,11.27
2023-01-07T22:28:56.210Z,11.28
2023-01-07T22:31:41.814Z,11.28
2023-01-07T22:34:09.840Z,11.30
2023-01-07T22:37:18.810Z,11.31
2023-01-07T22:39:57.088Z,11.28
2023-01-07T22:42:39.706Z,11.31
2023-01-07T22:45:17.738Z,11.31
2023-01-07T22:47:52.537Z,11.32
2023-01-07T22:50:19.855Z,11.32
2023-01-07T22:52:47.417Z,11.33
2023-01-07T22:55:14.595Z,11.30
2023-01-07T22:57:42.048Z,11.34
2023-01-07T23:00:35.866Z,11.33
2023-01-07T23:03:02.999Z,11.33
2023-01-07T23:05:30.070Z,11.34
2023-01-07T23:08:00.352Z,11.33
2023-01-07T23:10:27.514Z,11.33
2023-01-07T23:12:54.573Z,11.34
2023-01-07T23:15:21.747Z,11.33
2023-01-07T23:17:48.740Z,11.33
2023-01-07T23:20:16.103Z,11.34
2023-01-07T23:22:43.151Z,11.37
2023-01-07T23:25:10.225Z,11.36
2023-01-07T23:27:39.284Z,11.36
2023-01-07T23:30:07.506Z,11.36
2023-01-07T23:32:34.537Z,11.37
2023-01-07T23:35:01.569Z,11.38
2023-01-07T23:37:35.232Z,11.37
2023-01-07T23:40:02.256Z,11.35
2023-01-07T23:42:29.362Z,11.33
2023-01-07T23:44:57.089Z,11.27
2023-01-07T23:47:24.547Z,11.27
2023-01-07T23:49:51.930Z,11.23
2023-01-07T23:52:19.257Z,11.20
2023-01-07T23:54:46.429Z,11.17
2023-01-07T23:57:13.439Z,11.16
2023-01-07T23:59:40.498Z,11.15
